createdAt,value
2023-04-10T00:02:15.249Z,75.98
2023-04-10T00:05:13.012Z,76.05
2023-04-10T00:08:10.572Z,76.09
2023-04-10T00:11:08.318Z,76.17
2023-04-10T00:14:07.276Z,76.19
2023-04-10T00:17:04.771Z,76.33
2023-04-10T00:20:02.465Z,76.21
2023-04-10T00:22:59.961Z,76.33
2023-04-10T00:25:57.604Z,76.37
2023-04-10T00:28:55.024Z,76.48
2023-04-10T00:31:52.834Z,76.48
2023-04-10T00:34:50.636Z,76.43
2023-04-10T00:37:48.068Z,76.37
2023-04-10T00:40:45.873Z,76.42
2023-04-10T00:43:43.593Z,76.52
2023-04-10T00:46:41.750Z,76.15
2023-04-10T00:49:39.489Z,76.06
2023-04-10T00:52:37.716Z,76.19
2023-04-10T00:55:35.548Z,76.27
2023-04-10T00:58:33.072Z,76.38
2023-04-10T01:01:31.451Z,76.42
2023-04-10T01:04:29.855Z,76.33
2023-04-10T01:07:27.712Z,76.28
2023-04-10T01:10:25.407Z,76.34
2023-04-10T01:13:22.898Z,76.38
2023-04-10T01:16:21.554Z,76.42
2023-04-10T01:19:19.046Z,76.35
2023-04-10T01:22:16.866Z,76.48
2023-04-10T01:25:14.526Z,76.49
2023-04-10T01:28:11.963Z,76.49
2023-04-10T01:31:09.734Z,76.58
2023-04-10T01:34:07.513Z,76.58
2023-04-10T01:37:05.372Z,76.68
2023-04-10T01:40:02.943Z,76.77
2023-04-10T01:43:00.735Z,76.74
2023-04-10T01:45:59.054Z,76.80
2023-04-10T01:48:56.525Z,76.84
2023-04-10T01:51:56.129Z,76.62
2023-04-10T01:54:53.798Z,76.69
2023-04-10T01:57:52.246Z,76.83
2023-04-10T02:00:49.991Z,76.84
2023-04-10T02:03:47.559Z,76.94
2023-04-10T02:06:45.527Z,76.73
2023-04-10T02:09:42.941Z,76.76
2023-04-10T02:12:40.682Z,76.75
2023-04-10T02:15:38.273Z,76.84
2023-04-10T02:18:36.182Z,76.85
2023-04-10T02:21:34.190Z,76.83
2023-04-10T02:24:31.766Z,76.76
2023-04-10T02:27:29.747Z,76.79
2023-04-10T02:30:27.154Z,76.74
2023-04-10T02:33:24.855Z,76.91
2023-04-10T02:36:22.811Z,77.03
2023-04-10T02:39:21.099Z,77.04
2023-04-10T02:42:18.854Z,76.98
2023-04-10T02:45:16.270Z,76.98
2023-04-10T02:48:14.078Z,77.18
2023-04-10T02:51:11.955Z,77.29
2023-04-10T02:54:10.117Z,77.40
2023-04-10T02:57:07.523Z,77.46
2023-04-10T03:00:06.678Z,77.55
2023-04-10T03:03:04.445Z,77.62
2023-04-10T03:06:02.024Z,77.56
2023-04-10T03:08:59.634Z,77.59
2023-04-10T03:11:57.072Z,77.55
2023-04-10T03:14:54.640Z,77.59
2023-04-10T03:17:52.129Z,77.68
2023-04-10T03:20:49.750Z,77.64
2023-04-10T03:23:47.479Z,77.53
2023-04-10T03:26:45.018Z,77.64
2023-04-10T03:29:42.625Z,77.72
2023-04-10T03:32:42.419Z,77.77
2023-04-10T03:35:40.222Z,77.53
2023-04-10T03:38:37.647Z,77.54
2023-04-10T03:41:35.313Z,77.70
2023-04-10T03:44:33.059Z,77.86
2023-04-10T03:47:30.567Z,77.92
2023-04-10T03:50:28.325Z,77.86
2023-04-10T03:53:25.929Z,77.76
2023-04-10T03:56:23.943Z,77.83
2023-04-10T03:59:24.287Z,77.79
2023-04-10T04:02:26.311Z,77.81
2023-04-10T04:05:24.276Z,77.87
2023-04-10T04:08:21.683Z,77.99
2023-04-10T04:11:19.263Z,78.07
2023-04-10T04:14:16.674Z,78.13
2023-04-10T04:17:14.342Z,78.11
2023-04-10T04:20:11.769Z,78.20
2023-04-10T04:23:09.457Z,78.19
2023-04-10T04:26:07.139Z,78.26
2023-04-10T04:29:04.662Z,78.16
2023-04-10T04:32:02.370Z,78.12
2023-04-10T04:34:59.872Z,78.30
2023-04-10T04:37:57.698Z,78.22
2023-04-10T04:40:55.160Z,78.20
2023-04-10T04:43:53.947Z,78.35
2023-04-10T04:46:51.720Z,78.48
2023-04-10T04:49:49.385Z,78.50
2023-04-10T04:52:47.049Z,78.57
2023-04-10T04:55:44.524Z,78.60
2023-04-10T04:58:42.187Z,78.61
2023-04-10T05:01:39.720Z,78.78
2023-04-10T05:04:37.710Z,78.77
2023-04-10T05:07:35.892Z,78.64
2023-04-10T05:10:33.345Z,78.69
2023-04-10T05:13:31.432Z,78.84
2023-04-10T05:16:29.269Z,78.75
2023-04-10T05:19:26.660Z,78.73
2023-04-10T05:22:24.452Z,78.78
2023-04-10T05:25:22.553Z,78.44
2023-04-10T05:28:20.050Z,78.22
2023-04-10T05:31:17.958Z,78.29
2023-04-10T05:34:15.510Z,78.08
2023-04-10T05:37:13.965Z,77.94
2023-04-10T05:40:11.382Z,77.88
2023-04-10T05:43:09.316Z,77.49
2023-04-10T05:46:06.812Z,77.41
2023-04-10T05:49:05.067Z,76.98
2023-04-10T05:52:02.622Z,77.11
2023-04-10T05:55:00.568Z,76.98
2023-04-10T05:57:58.037Z,76.97
2023-04-10T06:00:56.825Z,76.89
2023-04-10T06:03:54.409Z,76.67
2023-04-10T06:06:52.457Z,76.43
2023-04-10T06:09:49.911Z,76.15
2023-04-10T06:12:47.808Z,75.78
2023-04-10T06:15:45.305Z,75.48
2023-04-10T06:18:43.213Z,75.04
2023-04-10T06:21:41.424Z,74.74
2023-04-10T06:24:38.907Z,74.36
2023-04-10T06:27:37.248Z,73.87
2023-04-10T06:30:37.266Z,73.91
2023-04-10T06:33:36.602Z,73.44
2023-04-10T06:36:35.891Z,72.87
2023-04-10T06:39:33.840Z,72.14
2023-04-10T06:42:31.663Z,70.84
2023-04-10T06:45:29.046Z,70.47
2023-04-10T06:48:26.941Z,69.90
2023-04-10T06:51:24.386Z,68.60
2023-04-10T06:54:22.175Z,67.88
2023-04-10T06:57:20.051Z,67.37
2023-04-10T07:00:17.995Z,66.84
2023-04-10T07:03:15.935Z,66.04
2023-04-10T07:06:13.972Z,65.06
2023-04-10T07:09:11.399Z,64.41
2023-04-10T07:12:09.231Z,64.12
2023-04-10T07:15:06.830Z,62.13
2023-04-10T07:18:04.707Z,61.55
2023-04-10T07:21:02.390Z,60.92
2023-04-10T07:24:00.247Z,59.65
2023-04-10T07:26:58.634Z,59.19
2023-04-10T07:29:57.108Z,58.67
2023-04-10T07:32:54.762Z,57.76
2023-04-10T07:35:52.821Z,56.20
2023-04-10T07:38:51.222Z,55.84
2023-04-10T07:41:48.702Z,53.91
2023-04-10T07:44:46.559Z,53.15
2023-04-10T07:47:44.041Z,51.40
2023-04-10T07:50:42.012Z,50.98
2023-04-10T07:53:39.540Z,50.71
2023-04-10T07:56:37.517Z,48.94
2023-04-10T07:59:35.380Z,49.05
2023-04-10T08:02:33.062Z,48.84
2023-04-10T08:05:31.454Z,48.17
2023-04-10T08:08:29.398Z,46.96
2023-04-10T08:11:27.716Z,46.18
2023-04-10T08:14:25.787Z,44.58
2023-04-10T08:17:23.243Z,44.56
2023-04-10T08:20:21.184Z,43.50
2023-04-10T08:23:20.888Z,42.77
2023-04-10T08:26:20.089Z,42.55
2023-04-10T08:29:17.555Z,41.60
2023-04-10T08:32:15.433Z,40.88
2023-04-10T08:35:12.914Z,40.13
2023-04-10T08:38:14.231Z,39.61
2023-04-10T08:41:12.821Z,39.15
2023-04-10T08:44:10.725Z,38.63
2023-04-10T08:47:08.690Z,38.51
2023-04-10T08:50:06.150Z,38.47
2023-04-10T08:53:04.023Z,38.06
2023-04-10T08:56:01.516Z,37.63
2023-04-10T08:58:59.043Z,37.08
2023-04-10T09:01:57.343Z,36.35
2023-04-10T09:04:55.714Z,36.23
2023-04-10T09:07:53.662Z,35.61
2023-04-10T09:10:54.367Z,35.09
2023-04-10T09:13:53.124Z,33.98
2023-04-10T09:16:50.954Z,33.93
2023-04-10T09:19:48.471Z,34.24
2023-04-10T09:22:46.410Z,33.53
2023-04-10T09:25:44.855Z,33.59
2023-04-10T09:28:42.743Z,33.32
2023-04-10T09:31:40.399Z,33.81
2023-04-10T09:34:38.261Z,33.11
2023-04-10T09:37:36.559Z,32.93
2023-04-10T09:40:34.076Z,32.27
2023-04-10T09:43:31.557Z,31.99
2023-04-10T09:46:29.607Z,32.25
2023-04-10T09:49:27.532Z,31.42
2023-04-10T09:52:25.741Z,31.24
2023-04-10T09:55:23.774Z,31.35
2023-04-10T09:58:21.197Z,31.42
2023-04-10T10:01:19.063Z,31.05
2023-04-10T10:04:17.497Z,30.63
2023-04-10T10:07:15.577Z,30.57
2023-04-10T10:10:13.176Z,30.84
2023-04-10T10:13:11.037Z,29.64
2023-04-10T10:16:08.728Z,28.90
2023-04-10T10:19:06.661Z,29.30
2023-04-10T10:22:04.634Z,29.00
2023-04-10T10:25:02.087Z,28.77
2023-04-10T10:27:59.973Z,28.55
2023-04-10T10:30:57.595Z,28.05
2023-04-10T10:33:55.487Z,27.64
2023-04-10T10:36:53.796Z,27.57
2023-04-10T10:39:51.365Z,27.42
2023-04-10T10:42:49.462Z,27.43
2023-04-10T10:45:47.044Z,27.21
2023-04-10T10:48:45.260Z,27.08
2023-04-10T10:51:42.821Z,26.80
2023-04-10T10:54:49.953Z,26.66
2023-04-10T10:57:52.199Z,26.89
2023-04-10T11:00:50.127Z,26.92
2023-04-10T11:03:47.699Z,26.51
2023-04-10T11:06:45.836Z,26.90
2023-04-10T11:09:43.258Z,26.87
2023-04-10T11:12:41.070Z,27.61
2023-04-10T11:15:39.069Z,27.68
2023-04-10T11:18:36.498Z,27.91
2023-04-10T11:21:34.699Z,27.62
2023-04-10T11:24:32.111Z,27.34
2023-04-10T11:27:30.020Z,26.65
2023-04-10T11:30:27.914Z,26.54
2023-04-10T11:33:25.396Z,26.38
2023-04-10T11:36:24.178Z,26.39
2023-04-10T11:39:21.702Z,26.07
2023-04-10T11:42:19.680Z,26.09
2023-04-10T11:45:17.122Z,26.24
2023-04-10T11:48:14.994Z,25.74
2023-04-10T11:51:12.974Z,25.26
2023-04-10T11:54:10.469Z,25.60
2023-04-10T11:57:09.716Z,25.75
2023-04-10T12:00:07.549Z,25.70
2023-04-10T12:03:05.736Z,25.66
2023-04-10T12:06:03.319Z,26.17
2023-04-10T12:09:01.299Z,25.75
2023-04-10T12:11:59.696Z,26.02
2023-04-10T12:14:57.762Z,26.46
2023-04-10T12:17:55.308Z,26.25
2023-04-10T12:20:56.684Z,26.52
2023-04-10T12:23:54.164Z,26.66
2023-04-10T12:26:52.119Z,26.95
2023-04-10T12:29:50.096Z,27.27
2023-04-10T12:32:48.165Z,26.96
2023-04-10T12:35:46.302Z,26.82
2023-04-10T12:38:45.460Z,26.49
2023-04-10T12:41:43.286Z,26.90
2023-04-10T12:44:41.072Z,27.34
2023-04-10T12:47:38.607Z,27.79
2023-04-10T12:50:36.620Z,28.90
2023-04-10T12:53:34.145Z,29.34
2023-04-10T12:56:32.161Z,29.38
2023-04-10T12:59:29.909Z,29.35
2023-04-10T13:02:27.518Z,29.16
2023-04-10T13:05:25.766Z,29.47
2023-04-10T13:08:23.817Z,29.57
2023-04-10T13:11:21.752Z,29.70
2023-04-10T13:14:19.653Z,30.36
2023-04-10T13:17:17.180Z,30.96
2023-04-10T13:20:15.035Z,31.40
2023-04-10T13:23:12.489Z,31.50
2023-04-10T13:26:10.550Z,32.03
2023-04-10T13:29:07.950Z,32.72
2023-04-10T13:32:06.551Z,33.27
2023-04-10T13:35:04.064Z,33.68
2023-04-10T13:38:02.049Z,34.00
2023-04-10T13:40:59.486Z,34.47
2023-04-10T13:43:57.360Z,34.76
2023-04-10T13:46:54.790Z,35.13
2023-04-10T13:49:52.717Z,35.07
2023-04-10T13:52:52.200Z,34.84
2023-04-10T13:55:51.701Z,34.33
2023-04-10T13:58:49.701Z,33.79
2023-04-10T14:01:47.867Z,33.43
2023-04-10T14:04:46.745Z,32.86
2023-04-10T14:07:44.213Z,32.65
2023-04-10T14:10:45.018Z,32.02
2023-04-10T14:13:42.725Z,31.56
2023-04-10T14:16:41.561Z,31.62
2023-04-10T14:19:40.311Z,31.45
2023-04-10T14:22:38.422Z,31.08
2023-04-10T14:25:36.596Z,31.15
2023-04-10T14:28:35.129Z,31.22
2023-04-10T14:31:33.717Z,31.55
2023-04-10T14:34:32.554Z,31.69
2023-04-10T14:37:30.661Z,32.08
2023-04-10T14:40:28.564Z,32.76
2023-04-10T14:43:26.011Z,32.94
2023-04-10T14:46:26.482Z,33.01
2023-04-10T14:49:23.954Z,32.83
2023-04-10T14:52:21.883Z,32.73
2023-04-10T14:55:19.415Z,32.07
2023-04-10T14:58:17.316Z,32.29
2023-04-10T15:01:14.768Z,31.80
2023-04-10T15:04:13.567Z,30.93
2023-04-10T15:07:11.185Z,30.65
2023-04-10T15:10:11.137Z,31.08
2023-04-10T15:13:08.614Z,31.66
2023-04-10T15:16:06.640Z,31.72
2023-04-10T15:19:04.071Z,31.75
2023-04-10T15:22:01.910Z,32.24
2023-04-10T15:24:59.570Z,32.59
2023-04-10T15:27:57.984Z,32.59
2023-04-10T15:30:57.756Z,32.65
2023-04-10T15:33:55.931Z,32.91
2023-04-10T15:36:53.484Z,33.35
2023-04-10T15:39:51.394Z,33.73
2023-04-10T15:42:48.814Z,33.79
2023-04-10T15:45:47.107Z,34.27
2023-04-10T15:48:46.529Z,34.39
2023-04-10T15:51:43.964Z,34.74
2023-04-10T15:54:41.775Z,34.96
2023-04-10T15:57:39.208Z,35.13
2023-04-10T16:00:37.191Z,35.49
2023-04-10T16:03:35.487Z,35.68
2023-04-10T16:06:34.572Z,35.97
2023-04-10T16:09:32.003Z,36.18
2023-04-10T16:12:29.868Z,36.32
2023-04-10T16:15:28.596Z,36.66
2023-04-10T16:18:26.549Z,36.82
2023-04-10T16:21:23.981Z,37.13
2023-04-10T16:24:21.787Z,37.51
2023-04-10T16:27:19.209Z,38.10
2023-04-10T16:30:17.190Z,38.47
2023-04-10T16:33:14.641Z,38.72
2023-04-10T16:36:12.544Z,38.93
2023-04-10T16:39:09.968Z,38.89
2023-04-10T16:42:07.768Z,39.26
2023-04-10T16:45:05.641Z,39.51
2023-04-10T16:48:03.101Z,40.04
2023-04-10T16:51:06.418Z,40.64
2023-04-10T16:54:04.488Z,40.83
2023-04-10T16:57:02.643Z,41.02
2023-04-10T17:00:00.224Z,41.51
2023-04-10T17:02:58.338Z,41.97
2023-04-10T17:05:55.848Z,42.41
2023-04-10T17:08:53.642Z,42.58
2023-04-10T17:11:53.740Z,42.84
2023-04-10T17:14:51.707Z,43.35
2023-04-10T17:17:50.255Z,43.54
2023-04-10T17:20:48.454Z,43.59
2023-04-10T17:23:46.437Z,43.89
2023-04-10T17:26:43.920Z,44.13
2023-04-10T17:29:41.846Z,44.72
2023-04-10T17:32:39.577Z,45.13
2023-04-10T17:35:37.678Z,45.28
2023-04-10T17:38:37.977Z,45.73
2023-04-10T17:41:36.077Z,46.13
2023-04-10T17:44:34.527Z,46.68
2023-04-10T17:47:32.304Z,47.05
2023-04-10T17:50:29.748Z,47.60
2023-04-10T17:53:27.894Z,48.22
2023-04-10T17:56:25.414Z,48.69
2023-04-10T17:59:23.329Z,49.03
2023-04-10T18:02:21.324Z,49.26
2023-04-10T18:05:18.974Z,49.72
2023-04-10T18:08:16.986Z,50.19
2023-04-10T18:11:15.434Z,50.73
2023-04-10T18:14:12.949Z,51.07
2023-04-10T18:17:11.315Z,51.41
2023-04-10T18:20:09.261Z,51.69
2023-04-10T18:23:08.951Z,51.89
2023-04-10T18:26:06.563Z,52.25
2023-04-10T18:29:04.474Z,52.51
2023-04-10T18:32:02.251Z,52.80
2023-04-10T18:35:00.450Z,53.12
2023-04-10T18:37:58.251Z,53.68
2023-04-10T18:40:56.294Z,53.94
2023-04-10T18:44:01.783Z,54.25
2023-04-10T18:47:04.596Z,54.48
2023-04-10T18:50:03.054Z,54.88
2023-04-10T18:53:00.978Z,55.09
2023-04-10T18:56:02.408Z,55.39
2023-04-10T18:59:00.948Z,55.76
2023-04-10T19:01:59.058Z,56.13
2023-04-10T19:04:58.029Z,56.25
2023-04-10T19:08:03.525Z,56.29
2023-04-10T19:11:03.152Z,56.55
2023-04-10T19:14:01.200Z,56.88
2023-04-10T19:16:59.179Z,56.99
2023-04-10T19:19:58.554Z,57.22
2023-04-10T19:22:56.032Z,57.35
2023-04-10T19:25:55.242Z,57.62
2023-04-10T19:28:54.310Z,57.68
2023-04-10T19:31:52.098Z,57.72
2023-04-10T19:34:52.503Z,57.84
2023-04-10T19:37:51.338Z,57.90
2023-04-10T19:40:49.194Z,58.00
2023-04-10T19:43:47.591Z,58.14
2023-04-10T19:46:46.194Z,58.32
2023-04-10T19:49:44.081Z,58.51
2023-04-10T19:52:42.015Z,58.57
2023-04-10T19:55:40.513Z,58.73
2023-04-10T19:58:40.903Z,58.97
2023-04-10T20:01:39.179Z,58.86
2023-04-10T20:04:37.302Z,58.83
2023-04-10T20:07:35.013Z,58.93
2023-04-10T20:10:33.052Z,58.98
2023-04-10T20:13:30.997Z,59.03
2023-04-10T20:16:28.927Z,59.29
2023-04-10T20:19:26.438Z,59.47
2023-04-10T20:22:24.109Z,59.48
2023-04-10T20:25:22.157Z,59.81
2023-04-10T20:28:19.595Z,59.87
2023-04-10T20:31:17.610Z,59.88
2023-04-10T20:34:15.085Z,60.12
2023-04-10T20:37:14.241Z,60.32
2023-04-10T20:40:12.124Z,60.52
2023-04-10T20:43:11.978Z,60.75
2023-04-10T20:46:10.015Z,60.87
2023-04-10T20:49:07.502Z,61.07
2023-04-10T20:52:05.753Z,61.16
2023-04-10T20:55:03.255Z,61.26
2023-04-10T20:58:01.114Z,61.43
2023-04-10T21:00:59.058Z,61.56
2023-04-10T21:03:56.762Z,61.75
2023-04-10T21:06:54.930Z,61.84
2023-04-10T21:09:52.363Z,61.96
2023-04-10T21:12:49.985Z,62.10
2023-04-10T21:15:47.769Z,62.00
2023-04-10T21:18:45.281Z,62.27
2023-04-10T21:21:43.074Z,62.49
2023-04-10T21:24:40.865Z,62.60
2023-04-10T21:27:38.269Z,62.67
2023-04-10T21:30:36.007Z,62.55
2023-04-10T21:33:33.441Z,62.40
2023-04-10T21:39:50.277Z,62.30
2023-04-10T21:42:48.069Z,62.58
2023-04-10T21:45:45.581Z,62.64
2023-04-10T21:48:44.614Z,62.70
2023-04-10T21:51:42.391Z,62.81
2023-04-10T21:54:39.863Z,63.00
2023-04-10T21:57:37.669Z,63.15
2023-04-10T22:00:35.331Z,63.42
2023-04-10T22:03:33.600Z,63.45
2023-04-10T22:06:31.654Z,63.63
2023-04-10T22:09:29.271Z,63.66
2023-04-10T22:12:26.954Z,63.77
2023-04-10T22:15:24.497Z,63.89
2023-04-10T22:18:22.191Z,63.98
2023-04-10T22:21:19.583Z,64.20
2023-04-10T22:24:17.332Z,64.19
2023-04-10T22:27:14.792Z,64.28
2023-04-10T22:30:12.490Z,64.42
2023-04-10T22:33:10.010Z,64.48
2023-04-10T22:36:07.928Z,64.42
2023-04-10T22:39:05.842Z,64.58
2023-04-10T22:42:03.348Z,64.62
2023-04-10T22:45:01.060Z,64.77
2023-04-10T22:47:58.576Z,64.86
2023-04-10T22:50:56.399Z,65.04
2023-04-10T22:53:54.406Z,65.11
2023-04-10T22:56:52.487Z,65.23
2023-04-10T22:59:50.228Z,65.43
2023-04-10T23:02:47.688Z,65.57
2023-04-10T23:05:45.747Z,65.68
2023-04-10T23:08:43.173Z,65.92
2023-04-10T23:11:40.768Z,66.06
2023-04-10T23:14:38.526Z,66.20
2023-04-10T23:17:36.016Z,66.40
2023-04-10T23:20:33.871Z,66.54
2023-04-10T23:23:31.321Z,66.70
2023-04-10T23:26:28.901Z,66.85
2023-04-10T23:29:26.394Z,66.93
2023-04-10T23:32:24.195Z,67.13
2023-04-10T23:35:21.684Z,67.30
2023-04-10T23:38:19.454Z,67.40
2023-04-10T23:41:17.122Z,67.48
2023-04-10T23:44:14.600Z,67.61
2023-04-10T23:47:12.308Z,67.71
2023-04-10T23:50:09.854Z,67.93
2023-04-10T23:53:08.898Z,68.29
2023-04-10T23:56:08.300Z,68.39
2023-04-10T23:59:05.864Z,68.50
